Time;durP1;ratioP1;P1;durP2;ratioP2;P2;SDS_P1;SDS_P2;PMS_P1;PMS_P2;Temp;Humidity;BMP_temperature;BMP_pressure;BME280_temperature;BME280_humidity;BME280_pressure;Samples;Min_cycle;Max_cycle;Signal;HPM_P1;HPM_P2
2023/08/16 00:01:35;;;;;;;10.70;7.65;;;;;;;19.84;100.00;101331.44;4982693;28;20050;-71
2023/08/16 00:04:01;;;;;;;10.43;7.90;;;;;;;19.83;100.00;101338.47;4962086;28;20128;-71
2023/08/16 00:06:27;;;;;;;9.30;6.00;;;;;;;19.82;100.00;101330.66;4974729;28;20180;-71
2023/08/16 00:08:57;;;;;;;15.60;8.40;;;;;;;19.81;100.00;101335.03;4983956;28;20062;-71
2023/08/16 00:11:23;;;;;;;10.10;6.93;;;;;;;19.79;100.00;101334.25;4983945;28;20026;-71
2023/08/16 00:13:48;;;;;;;11.23;6.82;;;;;;;19.78;100.00;101334.25;4983728;28;20045;-71
2023/08/16 00:16:14;;;;;;;9.27;7.20;;;;;;;19.77;100.00;101332.56;4985765;28;20172;-70
2023/08/16 00:18:40;;;;;;;8.63;6.93;;;;;;;19.75;100.00;101327.38;4972059;28;20038;-71
2023/08/16 00:21:05;;;;;;;10.27;7.10;;;;;;;19.74;100.00;101336.13;4988862;28;20038;-71
2023/08/16 00:23:30;;;;;;;7.43;6.20;;;;;;;19.73;100.00;101329.22;4988530;28;20102;-70
2023/08/16 00:25:56;;;;;;;9.13;6.55;;;;;;;19.74;100.00;101327.44;4984468;28;20038;-71
2023/08/16 00:28:22;;;;;;;5.88;5.28;;;;;;;19.72;100.00;101324.88;4982677;28;20034;-70
2023/08/16 00:30:52;;;;;;;9.35;6.25;;;;;;;19.72;100.00;101322.25;4983578;28;20030;-72
2023/08/16 00:33:17;;;;;;;9.70;6.63;;;;;;;19.71;100.00;101328.38;4983579;28;20049;-71
2023/08/16 00:35:42;;;;;;;10.90;7.07;;;;;;;19.71;100.00;101322.31;4968286;28;20042;-71
2023/08/16 00:38:08;;;;;;;10.70;7.45;;;;;;;19.73;100.00;101323.09;4966849;28;20038;-71
2023/08/16 00:40:33;;;;;;;9.73;7.13;;;;;;;19.73;100.00;101323.97;4983304;28;20054;-71
2023/08/16 00:42:58;;;;;;;11.43;8.00;;;;;;;19.74;100.00;101327.44;4982919;28;20724;-71
2023/08/16 00:45:24;;;;;;;9.80;7.88;;;;;;;19.75;100.00;101326.50;4979832;28;20046;-71
2023/08/16 00:47:49;;;;;;;9.20;7.43;;;;;;;19.71;100.00;101323.13;4983113;28;20133;-71
2023/08/16 00:50:15;;;;;;;8.27;7.47;;;;;;;19.74;100.00;101325.66;4983130;28;20034;-71
2023/08/16 00:52:41;;;;;;;11.15;6.43;;;;;;;19.79;100.00;101325.53;4986140;28;20128;-71
2023/08/16 00:55:08;;;;;;;8.13;6.53;;;;;;;19.84;100.00;101329.69;4981128;28;20027;-71
2023/08/16 00:57:34;;;;;;;10.38;7.22;;;;;;;19.87;100.00;101326.09;4985681;28;20577;-70
2023/08/16 00:59:59;;;;;;;11.00;6.82;;;;;;;19.90;100.00;101324.22;4985409;28;20038;-71
2023/08/16 01:02:25;;;;;;;6.63;5.93;;;;;;;19.92;100.00;101324.13;4991911;28;20030;-71
2023/08/16 01:04:50;;;;;;;8.15;5.70;;;;;;;19.94;100.00;101323.19;4980233;28;20038;-71
2023/08/16 01:07:15;;;;;;;6.43;5.70;;;;;;;19.97;100.00;101322.22;4988732;28;20038;-71
2023/08/16 01:09:42;;;;;;;8.90;5.22;;;;;;;19.96;100.00;101318.72;4985127;28;20073;-71
2023/08/16 01:12:18;;;;;;;7.07;5.40;;;;;;;19.98;100.00;101322.13;4985380;28;20527;-71
2023/08/16 01:14:53;;;;;;;6.70;6.00;;;;;;;20.01;100.00;101321.16;4976314;28;20396;-71
2023/08/16 01:17:22;;;;;;;7.07;5.35;;;;;;;20.04;100.00;101321.03;4985915;28;20164;-70
2023/08/16 01:19:48;;;;;;;9.00;5.18;;;;;;;20.07;100.00;101320.94;4983821;28;20499;-71
2023/08/16 01:22:28;;;;;;;12.15;5.72;;;;;;;20.11;100.00;101328.66;4989713;28;20038;-71
2023/08/16 01:25:03;;;;;;;8.65;6.30;;;;;;;20.16;100.00;101324.06;4969481;28;20034;-70
2023/08/16 01:27:29;;;;;;;9.15;6.03;;;;;;;20.21;100.00;101330.91;4986810;28;20031;-70
2023/08/16 01:29:55;;;;;;;11.40;5.47;;;;;;;20.23;100.00;101329.94;4989222;28;20025;-71
2023/08/16 01:32:23;;;;;;;6.80;5.03;;;;;;;20.27;100.00;101335.94;4987045;28;20057;-71
2023/08/16 01:34:48;;;;;;;13.13;5.97;;;;;;;20.28;100.00;101341.09;4988244;28;20050;-71
2023/08/16 01:37:14;;;;;;;8.57;6.28;;;;;;;20.31;100.00;101338.34;4987379;28;20065;-71
2023/08/16 01:39:40;;;;;;;7.15;6.35;;;;;;;20.34;100.00;101340.84;4963943;28;20471;-71
2023/08/16 01:42:08;;;;;;;8.70;6.40;;;;;;;20.34;100.00;101332.97;4986504;28;20058;-71
2023/08/16 01:44:34;;;;;;;9.05;6.13;;;;;;;20.37;100.00;101342.50;4986915;28;20018;-70
2023/08/16 01:46:59;;;;;;;9.13;6.03;;;;;;;20.39;100.00;101336.31;4985115;28;20093;-70
2023/08/16 01:49:26;;;;;;;7.43;5.57;;;;;;;20.41;100.00;101338.84;4993658;28;20046;-71
2023/08/16 01:51:52;;;;;;;9.18;6.07;;;;;;;20.39;100.00;101340.69;4998279;28;20065;-71
2023/08/16 01:54:17;;;;;;;8.05;5.63;;;;;;;20.35;100.00;101329.44;5007606;28;20030;-70
2023/08/16 01:56:43;;;;;;;13.95;6.13;;;;;;;20.37;100.00;101340.75;4998647;28;20038;-70
2023/08/16 01:59:08;;;;;;;9.13;5.75;;;;;;;20.39;100.00;101338.94;4992000;28;20562;-71
2023/08/16 02:01:34;;;;;;;9.32;6.22;;;;;;;20.36;100.00;101336.44;4972740;28;20042;-71
2023/08/16 02:03:59;;;;;;;8.88;6.07;;;;;;;20.36;100.00;101335.56;4988744;28;20074;-70
2023/08/16 02:06:25;;;;;;;6.95;5.28;;;;;;;20.37;100.00;101340.75;4970486;28;20031;-71
2023/08/16 02:08:51;;;;;;;7.40;5.32;;;;;;;20.39;100.00;101338.94;4987713;28;20026;-71
2023/08/16 02:11:17;;;;;;;9.88;5.82;;;;;;;20.39;100.00;101340.69;4986041;28;20090;-71
2023/08/16 02:13:42;;;;;;;8.82;6.05;;;;;;;20.38;100.00;101337.22;4984884;28;20602;-71
2023/08/16 02:16:08;;;;;;;5.47;4.72;;;;;;;20.39;100.00;101333.69;4987006;28;20047;-70
2023/08/16 02:18:33;;;;;;;7.38;4.93;;;;;;;20.41;100.00;101328.34;4982902;28;20077;-70
2023/08/16 02:20:59;;;;;;;7.65;5.35;;;;;;;20.42;100.00;101330.06;4986631;28;20041;-71
2023/08/16 02:23:24;;;;;;;7.22;4.70;;;;;;;20.44;100.00;101323.84;4988218;28;20034;-71
2023/08/16 02:25:50;;;;;;;7.07;5.53;;;;;;;20.47;100.00;101328.09;4986865;28;20504;-71
2023/08/16 02:28:15;;;;;;;8.80;5.80;;;;;;;20.48;100.00;101329.81;4971733;28;20587;-70
2023/08/16 02:30:40;;;;;;;11.40;6.75;;;;;;;20.47;100.00;101328.97;4972276;28;20034;-71
2023/08/16 02:33:06;;;;;;;8.07;7.13;;;;;;;20.48;100.00;101337.72;4989164;28;20045;-71
2023/08/16 02:35:31;;;;;;;10.50;7.63;;;;;;;20.46;100.00;101337.75;4988274;28;20121;-71
2023/08/16 02:37:57;;;;;;;14.45;9.25;;;;;;;20.45;100.00;101333.41;4971660;28;20039;-71
2023/08/16 02:40:22;;;;;;;12.48;10.10;;;;;;;20.44;100.00;101333.47;4966710;28;20527;-70
2023/08/16 02:42:49;;;;;;;9.50;8.48;;;;;;;20.44;100.00;101342.22;4981829;28;20674;-71
2023/08/16 02:45:15;;;;;;;12.75;10.98;;;;;;;20.44;100.00;101334.34;4983860;28;20121;-71
2023/08/16 02:47:40;;;;;;;13.40;10.13;;;;;;;20.42;100.00;101344.03;4982087;28;20026;-71
2023/08/16 02:50:06;;;;;;;17.55;11.07;;;;;;;20.41;100.00;101341.47;4967584;28;20050;-71
2023/08/16 02:52:32;;;;;;;14.20;9.68;;;;;;;20.43;100.00;101339.63;4969529;28;20177;-71
2023/08/16 02:54:57;;;;;;;13.77;10.63;;;;;;;20.43;100.00;101342.25;4990674;28;20076;-71
2023/08/16 02:57:22;;;;;;;16.60;11.23;;;;;;;20.42;100.00;101343.19;4982974;28;20065;-70
2023/08/16 02:59:48;;;;;;;20.17;13.80;;;;;;;20.39;100.00;101346.81;4984718;28;20030;-70
2023/08/16 03:02:14;;;;;;;21.52;13.52;;;;;;;20.39;100.00;101341.56;4963201;28;20051;-71
2023/08/16 03:04:39;;;;;;;24.90;13.77;;;;;;;20.41;100.00;101338.84;4986967;28;20686;-71
2023/08/16 03:07:06;;;;;;;17.33;12.63;;;;;;;20.41;100.00;101346.72;4985815;28;20080;-70
2023/08/16 03:09:32;;;;;;;18.35;12.90;;;;;;;20.43;100.00;101350.13;4989777;28;20061;-70
2023/08/16 03:11:57;;;;;;;18.02;12.85;;;;;;;20.44;100.00;101347.47;4983107;28;20489;-71
2023/08/16 03:14:23;;;;;;;21.73;13.75;;;;;;;20.43;100.00;101344.88;4984928;28;20443;-71
2023/08/16 03:16:48;;;;;;;23.98;14.32;;;;;;;20.41;100.00;101344.97;4985863;28;20595;-70
2023/08/16 03:19:14;;;;;;;21.25;14.18;;;;;;;20.44;100.00;101346.59;4968757;28;20471;-71
2023/08/16 03:21:39;;;;;;;20.23;13.48;;;;;;;20.44;100.00;101347.47;4969565;28;20563;-71
2023/08/16 03:24:05;;;;;;;21.65;12.95;;;;;;;20.43;100.00;101347.50;4968130;28;20508;-71
2023/08/16 03:26:30;;;;;;;17.80;12.80;;;;;;;20.42;100.00;101343.19;4990796;28;20030;-71
2023/08/16 03:28:56;;;;;;;24.75;14.77;;;;;;;20.41;100.00;101342.34;4991959;28;20038;-71
2023/08/16 03:31:22;;;;;;;17.08;13.25;;;;;;;20.42;100.00;101343.19;4987080;28;20449;-71
2023/08/16 03:33:48;;;;;;;23.60;15.30;;;;;;;20.42;100.00;101346.66;4968963;28;20061;-71
2023/08/16 03:36:13;;;;;;;25.77;16.02;;;;;;;20.42;100.00;101351.06;4984513;28;20515;-71
2023/08/16 03:38:41;;;;;;;23.27;13.52;;;;;;;20.44;100.00;101351.84;4987007;28;20034;-71
2023/08/16 03:41:07;;;;;;;25.95;15.63;;;;;;;20.44;100.00;101349.22;4976853;28;20042;-71
2023/08/16 03:43:36;;;;;;;22.20;12.88;;;;;;;20.45;100.00;101356.22;4966302;28;20030;-70
2023/08/16 03:46:02;;;;;;;20.55;12.82;;;;;;;20.46;100.00;101347.41;4966847;28;20038;-70
2023/08/16 03:48:28;;;;;;;26.60;14.20;;;;;;;20.47;100.00;101354.38;4986855;28;20049;-70
2023/08/16 03:50:53;;;;;;;24.98;15.15;;;;;;;20.46;100.00;101356.13;4968348;28;20038;-71
2023/08/16 03:53:18;;;;;;;23.45;15.02;;;;;;;20.45;100.00;101359.66;4988020;28;20033;-71
2023/08/16 03:55:44;;;;;;;24.40;15.00;;;;;;;20.45;100.00;101361.47;4983976;28;20125;-71
2023/08/16 03:58:09;;;;;;;25.60;16.63;;;;;;;20.44;100.00;101363.22;4987110;28;20038;-71
2023/08/16 04:00:34;;;;;;;23.88;16.98;;;;;;;20.46;100.00;101363.16;4985457;28;20046;-70
2023/08/16 04:03:00;;;;;;;18.60;14.25;;;;;;;20.43;100.00;101360.66;4970535;28;20496;-69
2023/08/16 04:05:25;;;;;;;26.08;18.33;;;;;;;20.41;100.00;101371.22;4972429;28;20030;-71
2023/08/16 04:07:51;;;;;;;23.05;16.48;;;;;;;20.39;100.00;101367.81;4983106;28;20108;-71
2023/08/16 04:10:16;;;;;;;29.52;19.30;;;;;;;20.37;100.00;101367.00;4986536;28;20077;-71
2023/08/16 04:12:41;;;;;;;23.75;16.23;;;;;;;20.36;100.00;101372.31;4985200;28;20400;-71
2023/08/16 04:15:08;;;;;;;19.23;14.05;;;;;;;20.36;100.00;101372.31;4984833;28;20042;-70
2023/08/16 04:17:33;;;;;;;21.70;15.15;;;;;;;20.35;100.00;101374.09;4981156;28;20117;-70
2023/08/16 04:19:58;;;;;;;26.20;13.82;;;;;;;20.33;100.00;101365.44;4979136;28;20728;-71
2023/08/16 04:22:24;;;;;;;19.33;14.82;;;;;;;20.33;100.00;101361.94;4983939;28;20062;-70
2023/08/16 04:24:49;;;;;;;15.63;11.93;;;;;;;20.32;100.00;101363.72;4980970;28;20050;-71
2023/08/16 04:27:14;;;;;;;20.52;15.82;;;;;;;20.31;100.00;101369.88;4981707;28;20072;-71
2023/08/16 04:29:40;;;;;;;14.68;12.82;;;;;;;20.29;100.00;101363.81;4983573;28;20046;-71
2023/08/16 04:32:05;;;;;;;26.38;13.98;;;;;;;20.28;100.00;101379.63;4966744;28;20046;-71
2023/08/16 04:34:31;;;;;;;21.27;14.75;;;;;;;20.27;100.00;101388.44;4986452;28;20086;-70
2023/08/16 04:36:56;;;;;;;19.58;13.73;;;;;;;20.26;100.00;101389.34;4967591;28;20058;-71
2023/08/16 04:39:22;;;;;;;20.55;13.48;;;;;;;20.24;100.00;101381.53;4985552;28;20118;-71
2023/08/16 04:41:48;;;;;;;19.77;13.73;;;;;;;20.23;100.00;101376.31;4981765;28;20136;-71
2023/08/16 04:44:13;;;;;;;16.73;13.07;;;;;;;20.23;100.00;101377.19;4985469;28;20034;-71
2023/08/16 04:46:38;;;;;;;19.98;16.58;;;;;;;20.22;100.00;101377.22;4966095;28;20046;-71
2023/08/16 04:49:04;;;;;;;18.90;14.35;;;;;;;20.23;100.00;101378.94;4998440;28;20041;-71
2023/08/16 04:51:30;;;;;;;24.27;16.58;;;;;;;20.20;100.00;101382.56;5000093;28;20106;-71
2023/08/16 04:53:55;;;;;;;22.77;14.38;;;;;;;20.20;100.00;101387.81;4975746;28;20033;-71
2023/08/16 04:56:20;;;;;;;22.15;13.82;;;;;;;20.23;100.00;101386.81;4991199;28;20025;-70
2023/08/16 04:58:45;;;;;;;23.55;15.68;;;;;;;20.23;100.00;101381.56;4987245;28;20039;-71
2023/08/16 05:01:11;;;;;;;25.60;15.70;;;;;;;20.22;100.00;101383.34;4993129;28;20034;-71
2023/08/16 05:03:36;;;;;;;23.90;16.17;;;;;;;20.23;100.00;101389.44;4994221;28;20105;-71
2023/08/16 05:06:03;;;;;;;28.63;14.82;;;;;;;20.24;100.00;101385.91;4992707;28;20022;-71
2023/08/16 05:08:29;;;;;;;19.40;13.77;;;;;;;20.23;100.00;101371.06;4992712;28;20022;-71
2023/08/16 05:10:56;;;;;;;21.45;14.80;;;;;;;20.27;100.00;101383.19;4989879;28;20247;-70
2023/08/16 05:13:21;;;;;;;20.65;13.73;;;;;;;20.30;100.00;101385.69;4988807;28;20038;-71
2023/08/16 05:15:47;;;;;;;18.02;14.18;;;;;;;20.30;100.00;101372.56;4981850;28;20049;-71
2023/08/16 05:18:12;;;;;;;23.65;17.48;;;;;;;20.29;100.00;101382.19;4984401;28;20546;-70
2023/08/16 05:20:38;;;;;;;21.08;14.80;;;;;;;20.30;100.00;101375.19;4981992;28;20038;-71
2023/08/16 05:23:04;;;;;;;20.17;14.63;;;;;;;20.31;100.00;101371.63;4986329;28;20512;-71
2023/08/16 05:25:29;;;;;;;21.10;16.30;;;;;;;20.30;100.00;101373.41;4968986;28;20100;-70
2023/08/16 05:27:58;;;;;;;28.40;16.80;;;;;;;20.33;100.00;101367.19;4989805;28;20034;-70
2023/08/16 05:30:26;;;;;;;28.17;16.95;;;;;;;20.30;100.00;101362.06;4989017;28;20054;-69
2023/08/16 05:32:54;;;;;;;23.38;16.65;;;;;;;20.32;100.00;101374.22;4990532;28;20130;-72
2023/08/16 05:35:20;;;;;;;22.33;16.75;;;;;;;20.33;100.00;101380.31;4995440;28;20024;-71
2023/08/16 05:37:45;;;;;;;23.30;16.35;;;;;;;20.33;100.00;101367.19;4993497;28;20165;-72
2023/08/16 05:40:11;;;;;;;24.05;17.75;;;;;;;20.35;100.00;101365.34;4989257;28;20050;-71
2023/08/16 05:42:37;;;;;;;24.55;18.67;;;;;;;20.35;100.00;101357.47;4986716;28;20046;-71
2023/08/16 05:45:02;;;;;;;20.88;15.77;;;;;;;20.42;100.00;101372.91;4981049;28;20130;-71
2023/08/16 05:47:28;;;;;;;21.33;14.85;;;;;;;20.47;100.00;101386.75;4963865;28;20109;-69
2023/08/16 05:49:53;;;;;;;18.50;15.25;;;;;;;20.53;100.00;101411.91;4986419;28;20041;-71
2023/08/16 05:52:18;;;;;;;21.70;15.65;;;;;;;20.55;100.00;101423.19;4987279;28;20283;-71
2023/08/16 05:54:44;;;;;;;19.48;15.40;;;;;;;20.56;100.00;101425.78;4984520;28;20034;-71
2023/08/16 05:57:09;;;;;;;18.48;14.57;;;;;;;20.55;100.00;101425.81;4987980;28;20056;-70
2023/08/16 05:59:34;;;;;;;24.40;17.85;;;;;;;20.52;100.00;101421.56;4985275;28;20120;-72
2023/08/16 06:02:00;;;;;;;21.60;15.60;;;;;;;20.51;100.00;101440.00;4985252;28;20039;-71
2023/08/16 06:04:25;;;;;;;22.25;16.83;;;;;;;20.49;100.00;101437.44;4989036;28;20093;-69
2023/08/16 06:06:51;;;;;;;21.02;15.45;;;;;;;20.49;100.00;101431.31;4983249;28;20054;-69
2023/08/16 06:09:16;;;;;;;16.95;14.40;;;;;;;20.52;100.00;101439.94;4966176;28;20042;-69
2023/08/16 06:11:41;;;;;;;20.73;16.08;;;;;;;20.57;100.00;101429.28;4986482;28;20053;-69
2023/08/16 06:14:07;;;;;;;27.33;16.65;;;;;;;20.59;100.00;101427.44;4953320;28;20515;-69
2023/08/16 06:16:32;;;;;;;28.40;18.05;;;;;;;20.63;100.00;101429.84;4978157;28;20043;-69
2023/08/16 06:18:58;;;;;;;27.70;17.95;;;;;;;20.65;100.00;101422.78;4986659;28;20049;-68
2023/08/16 06:21:23;;;;;;;32.80;19.35;;;;;;;20.67;100.00;101420.09;4967486;28;20456;-69
2023/08/16 06:23:48;;;;;;;20.92;16.75;;;;;;;20.74;100.00;101418.13;4991053;28;20172;-69
2023/08/16 06:26:14;;;;;;;22.83;16.42;;;;;;;20.84;100.00;101412.41;4987929;28;20062;-69
2023/08/16 06:28:39;;;;;;;28.10;19.33;;;;;;;20.92;100.00;101420.00;4984566;28;20117;-69
2023/08/16 06:31:04;;;;;;;28.27;19.27;;;;;;;20.94;99.58;101413.78;4982498;28;20046;-70
2023/08/16 06:33:30;;;;;;;27.92;20.60;;;;;;;20.96;98.91;101409.28;4984441;28;20042;-69
2023/08/16 06:35:56;;;;;;;34.00;19.27;;;;;;;20.93;98.75;101421.72;4966050;28;20064;-70
2023/08/16 06:38:21;;;;;;;30.00;18.90;;;;;;;20.91;99.05;101429.66;4984500;28;20033;-68
2023/08/16 06:40:47;;;;;;;33.08;19.67;;;;;;;20.93;98.71;101427.81;4982875;28;20046;-69
2023/08/16 06:43:12;;;;;;;26.35;18.10;;;;;;;21.00;98.54;101429.28;4984402;28;20038;-69
2023/08/16 06:45:38;;;;;;;28.08;20.63;;;;;;;21.05;98.16;101422.06;4980543;28;20050;-69
2023/08/16 06:48:04;;;;;;;39.22;22.10;;;;;;;21.07;97.55;101417.63;4980719;28;20685;-70
2023/08/16 06:50:30;;;;;;;32.17;21.27;;;;;;;21.05;97.60;101419.44;4980537;28;20096;-69
2023/08/16 06:52:55;;;;;;;29.67;20.02;;;;;;;21.07;97.48;101428.13;4982278;28;20052;-69
2023/08/16 06:55:21;;;;;;;29.77;20.13;;;;;;;21.09;97.75;101422.78;4983769;28;20042;-69
2023/08/16 06:57:47;;;;;;;31.98;20.73;;;;;;;21.09;97.97;101426.28;4983064;28;20034;-69
2023/08/16 07:00:15;;;;;;;35.05;21.20;;;;;;;21.21;97.39;101431.03;4983765;28;20061;-69
2023/08/16 07:02:40;;;;;;;35.63;22.20;;;;;;;21.35;97.07;101432.22;4985919;28;20026;-69
2023/08/16 07:05:06;;;;;;;25.10;18.80;;;;;;;21.47;96.67;101435.19;4988800;28;20054;-70
2023/08/16 07:07:32;;;;;;;29.10;19.92;;;;;;;21.47;96.29;101436.97;4985336;28;20030;-70
2023/08/16 07:09:57;;;;;;;31.80;20.63;;;;;;;21.52;96.73;101432.38;4987820;28;20054;-69
2023/08/16 07:12:23;;;;;;;43.80;24.67;;;;;;;21.55;96.44;101437.50;4983659;28;20038;-69
2023/08/16 07:14:49;;;;;;;33.58;18.77;;;;;;;21.62;96.20;101445.09;4983652;28;20040;-69
2023/08/16 07:17:14;;;;;;;30.92;20.25;;;;;;;21.59;95.68;101436.47;4983535;28;20169;-69
2023/08/16 07:19:40;;;;;;;29.35;20.92;;;;;;;21.58;95.51;101435.59;4985052;28;20053;-69
2023/08/16 07:22:05;;;;;;;40.60;22.73;;;;;;;21.56;96.10;101433.97;4984170;28;20038;-69
2023/08/16 07:24:30;;;;;;;44.72;24.05;;;;;;;21.51;96.92;101438.56;4986173;28;20038;-69
2023/08/16 07:26:56;;;;;;;45.47;25.30;;;;;;;21.46;96.42;101436.09;4982212;28;20045;-69
2023/08/16 07:29:21;;;;;;;40.22;23.67;;;;;;;21.42;97.05;101438.94;4978843;28;20038;-69
2023/08/16 07:31:48;;;;;;;46.97;26.65;;;;;;;21.39;98.21;101433.81;4985095;28;20042;-69
2023/08/16 07:34:13;;;;;;;44.53;25.48;;;;;;;21.37;99.59;101435.66;4983054;28;20049;-68
2023/08/16 07:36:39;;;;;;;66.03;32.17;;;;;;;21.28;100.00;101440.38;4989195;28;20045;-69
2023/08/16 07:39:04;;;;;;;68.15;33.75;;;;;;;21.08;100.00;101437.72;4983882;28;20037;-69
2023/08/16 07:41:30;;;;;;;72.45;34.85;;;;;;;20.99;100.00;101438.09;4982645;28;20529;-69
2023/08/16 07:43:55;;;;;;;80.80;37.30;;;;;;;20.95;100.00;101447.03;4984732;28;20468;-69
2023/08/16 07:46:20;;;;;;;67.70;36.85;;;;;;;20.84;100.00;101438.69;4966165;28;20049;-70
2023/08/16 07:48:46;;;;;;;77.07;36.42;;;;;;;20.78;100.00;101443.38;4987584;28;20038;-69
2023/08/16 07:51:11;;;;;;;84.07;38.50;;;;;;;20.79;100.00;101445.91;4989576;28;20026;-69
2023/08/16 07:53:37;;;;;;;76.72;38.20;;;;;;;20.81;100.00;101451.97;4987004;28;20030;-69
2023/08/16 07:56:02;;;;;;;58.20;31.40;;;;;;;20.86;100.00;101457.91;4968479;28;20049;-69
2023/08/16 07:58:27;;;;;;;64.78;34.40;;;;;;;20.88;100.00;101468.34;4982213;28;20041;-69
2023/08/16 08:00:54;;;;;;;67.72;34.47;;;;;;;20.91;100.00;101466.47;4984764;28;20500;-69
2023/08/16 08:03:21;;;;;;;67.80;33.30;;;;;;;20.85;100.00;101474.59;4982979;28;20046;-69
2023/08/16 08:05:47;;;;;;;61.45;34.65;;;;;;;20.86;100.00;101472.81;4991138;28;20655;-69
2023/08/16 08:08:12;;;;;;;59.60;32.35;;;;;;;20.92;100.00;101475.19;4990457;28;20046;-70
2023/08/16 08:10:42;;;;;;;51.90;30.27;;;;;;;21.03;100.00;101476.47;4989442;28;20046;-69
2023/08/16 08:13:08;;;;;;;56.90;31.13;;;;;;;21.15;100.00;101473.34;4985263;28;20084;-69
2023/08/16 08:15:33;;;;;;;52.05;27.90;;;;;;;21.26;100.00;101472.91;4950905;28;20058;-70
2023/08/16 08:17:59;;;;;;;49.78;28.25;;;;;;;21.35;100.00;101476.94;4981673;28;20034;-69
2023/08/16 08:20:25;;;;;;;57.42;31.55;;;;;;;21.36;100.00;101474.25;4980636;28;20033;-69
2023/08/16 08:22:50;;;;;;;57.78;30.05;;;;;;;21.34;100.00;101470.84;4982717;28;20042;-69
2023/08/16 08:25:15;;;;;;;42.05;26.88;;;;;;;21.52;100.00;101471.84;4964914;28;20038;-69
2023/08/16 08:27:41;;;;;;;52.67;26.08;;;;;;;21.60;100.00;101473.25;4983702;28;20100;-69
2023/08/16 08:30:07;;;;;;;48.15;28.00;;;;;;;21.72;100.00;101471.88;4983867;28;20034;-69
2023/08/16 08:32:33;;;;;;;53.47;28.98;;;;;;;21.78;100.00;101468.97;4985059;28;20041;-69
2023/08/16 08:34:58;;;;;;;54.38;32.10;;;;;;;21.79;100.00;101474.16;4973868;28;20042;-69
2023/08/16 08:37:24;;;;;;;57.33;30.58;;;;;;;21.84;100.00;101488.91;4991565;28;20058;-69
2023/08/16 08:39:49;;;;;;;52.10;27.60;;;;;;;21.82;100.00;101485.50;4984952;28;20101;-69
2023/08/16 08:42:15;;;;;;;47.03;27.13;;;;;;;21.93;100.00;101485.88;4961725;28;20493;-69
2023/08/16 08:44:42;;;;;;;60.50;30.60;;;;;;;22.02;100.00;101481.06;4966477;28;20034;-69
2023/08/16 08:47:09;;;;;;;58.00;30.75;;;;;;;22.06;100.00;101487.88;4981080;28;20038;-69
2023/08/16 08:49:35;;;;;;;51.22;28.90;;;;;;;22.08;100.00;101487.84;4945713;28;20038;-69
2023/08/16 08:52:04;;;;;;;61.80;30.55;;;;;;;22.14;100.00;101490.19;4981452;28;20042;-69
2023/08/16 08:54:31;;;;;;;59.53;31.73;;;;;;;22.07;100.00;101484.34;4978847;28;20420;-69
2023/08/16 08:56:59;;;;;;;48.60;27.02;;;;;;;22.13;100.00;101483.22;4964999;28;20050;-69
2023/08/16 08:59:26;;;;;;;48.95;26.17;;;;;;;22.24;100.00;101491.47;4979326;28;20046;-69
2023/08/16 09:01:52;;;;;;;49.53;27.33;;;;;;;22.33;100.00;101483.16;4960924;28;20035;-69
2023/08/16 09:04:18;;;;;;;46.45;26.63;;;;;;;22.42;100.00;101485.41;4979061;28;20041;-69
2023/08/16 09:06:44;;;;;;;43.88;27.75;;;;;;;22.52;100.00;101488.47;4982697;28;20052;-69
2023/08/16 09:09:11;;;;;;;45.67;25.08;;;;;;;22.56;99.91;101496.16;4983252;28;20022;-69
2023/08/16 09:11:36;;;;;;;43.50;25.75;;;;;;;22.60;99.44;101499.50;4978455;28;20724;-69
2023/08/16 09:14:03;;;;;;;45.72;25.42;;;;;;;22.67;99.00;101487.78;4982009;28;20053;-70
2023/08/16 09:16:29;;;;;;;47.50;24.52;;;;;;;22.81;98.80;101488.84;4982370;28;20412;-68
2023/08/16 09:18:54;;;;;;;49.15;28.13;;;;;;;22.81;97.62;101486.19;4985391;28;20035;-68
2023/08/16 09:21:24;;;;;;;43.67;22.10;;;;;;;22.92;97.70;101480.41;4986466;28;20505;-69
2023/08/16 09:24:00;;;;;;;38.75;22.42;;;;;;;23.04;96.93;101489.50;4983844;28;20050;-69
2023/08/16 09:26:29;;;;;;;31.60;17.92;;;;;;;23.17;96.51;101487.97;4942517;28;20146;-69
2023/08/16 09:29:04;;;;;;;39.03;23.30;;;;;;;23.14;93.55;101488.13;4967971;28;20079;-69
2023/08/16 09:31:30;;;;;;;41.25;22.77;;;;;;;23.20;94.46;101487.88;4968236;28;20125;-69
2023/08/16 09:33:59;;;;;;;32.38;18.02;;;;;;;23.27;94.32;101484.84;4972510;28;20102;-69
2023/08/16 09:36:29;;;;;;;29.92;16.73;;;;;;;23.32;93.58;101482.84;4975632;28;20707;-69
2023/08/16 09:38:59;;;;;;;36.28;20.45;;;;;;;23.28;93.01;101483.91;4990691;28;20488;-69
2023/08/16 09:41:25;;;;;;;43.45;23.65;;;;;;;22.87;91.99;101477.13;4990150;28;20034;-69
2023/08/16 09:43:50;;;;;;;43.33;23.95;;;;;;;22.65;94.04;101479.09;4991210;28;20516;-69
2023/08/16 09:46:20;;;;;;;38.33;22.13;;;;;;;22.72;94.80;101477.84;4994208;28;20034;-69
2023/08/16 09:48:46;;;;;;;35.10;19.42;;;;;;;22.80;95.32;101478.34;4987216;28;20047;-69
2023/08/16 09:51:11;;;;;;;36.00;20.75;;;;;;;22.85;94.72;101476.38;4983583;28;20042;-69
2023/08/16 09:53:47;;;;;;;28.20;18.35;;;;;;;22.92;93.98;101475.13;4986782;28;20026;-69
2023/08/16 09:56:13;;;;;;;24.48;15.75;;;;;;;22.99;93.78;101473.91;4968501;28;20136;-69
2023/08/16 09:58:39;;;;;;;22.70;14.18;;;;;;;23.01;93.52;101481.72;4967055;28;21132;-69
2023/08/16 10:01:04;;;;;;;30.88;17.85;;;;;;;22.82;91.87;101479.16;4985064;28;20078;-70
2023/08/16 10:03:30;;;;;;;32.38;17.30;;;;;;;22.79;91.51;101481.94;4991372;28;20041;-69
2023/08/16 10:05:56;;;;;;;25.80;14.90;;;;;;;22.70;91.94;101482.34;4988627;28;20306;-70
2023/08/16 10:08:23;;;;;;;29.20;16.17;;;;;;;22.66;92.53;101476.38;4987347;28;20026;-69
2023/08/16 10:10:49;;;;;;;28.48;15.15;;;;;;;22.66;92.97;101478.16;4986283;28;20056;-69
2023/08/16 10:13:15;;;;;;;28.20;15.95;;;;;;;22.68;93.64;101474.50;4986267;28;20508;-69
2023/08/16 10:15:44;;;;;;;29.23;18.23;;;;;;;22.59;93.55;101472.31;4986073;28;20042;-69
2023/08/16 10:18:11;;;;;;;36.47;19.98;;;;;;;22.59;93.94;101468.84;4981882;28;20045;-69
2023/08/16 10:20:38;;;;;;;34.97;20.13;;;;;;;22.67;94.40;101478.09;4977511;28;20033;-69
2023/08/16 10:23:04;;;;;;;25.67;16.77;;;;;;;22.82;94.17;101476.50;4982680;28;20446;-70
2023/08/16 10:25:38;;;;;;;26.98;17.77;;;;;;;22.92;92.95;101475.97;4979344;28;20073;-69
2023/08/16 10:28:04;;;;;;;27.52;15.60;;;;;;;23.07;92.41;101478.78;4980455;28;20484;-69
2023/08/16 10:30:32;;;;;;;41.47;22.92;;;;;;;23.11;91.04;101475.94;4982530;28;20049;-69
2023/08/16 10:33:09;;;;;;;46.75;24.75;;;;;;;23.08;91.13;101476.09;4984610;28;20570;-69
2023/08/16 10:35:35;;;;;;;58.40;28.35;;;;;;;23.00;91.37;101477.41;4979724;28;20031;-69
2023/08/16 10:38:01;;;;;;;42.78;22.98;;;;;;;23.08;91.36;101477.88;4985839;28;20065;-70
2023/08/16 10:40:27;;;;;;;46.15;20.55;;;;;;;23.19;90.91;101483.50;4964098;28;20047;-69
2023/08/16 10:43:08;;;;;;;50.40;23.77;;;;;;;23.29;90.53;101482.13;4981437;28;20054;-69
2023/08/16 10:45:34;;;;;;;62.15;28.50;;;;;;;23.35;90.84;101482.69;4984401;28;20034;-69
2023/08/16 10:48:10;;;;;;;58.92;29.40;;;;;;;23.55;90.09;101472.91;4971205;28;20056;-69
2023/08/16 10:50:36;;;;;;;55.45;27.88;;;;;;;23.72;88.99;101478.19;4968921;28;20030;-70
2023/08/16 10:53:04;;;;;;;60.28;28.52;;;;;;;23.73;88.56;101471.97;4990238;28;20045;-70
2023/08/16 10:55:29;;;;;;;59.05;27.63;;;;;;;23.72;88.40;101475.56;4983301;28;20042;-69
2023/08/16 10:57:55;;;;;;;56.33;29.60;;;;;;;23.73;88.70;101479.88;4982593;28;20038;-69
2023/08/16 11:00:32;;;;;;;45.58;25.52;;;;;;;23.71;88.83;101484.41;4982779;28;20500;-69
2023/08/16 11:03:03;;;;;;;47.70;24.80;;;;;;;23.68;89.18;101479.28;4983220;28;20530;-70